Time;durP1;ratioP1;P1;durP2;ratioP2;P2;SDS_P1;SDS_P2;PMS_P1;PMS_P2;Temp;Humidity;BMP_temperature;BMP_pressure;BME280_temperature;BME280_humidity;BME280_pressure;Samples;Min_cycle;Max_cycle;Signal;HPM_P1;HPM_P2
2022/11/07 00:02:03;;;;;;;13.55;8.52;;;10.70;99.90;;;;;;6170087;23;20068;-92
2022/11/07 00:04:30;;;;;;;10.82;8.60;;;10.80;99.90;;;;;;6171227;23;20020;-92
2022/11/07 00:06:57;;;;;;;12.27;8.70;;;10.80;99.90;;;;;;6170497;23;20020;-92
2022/11/07 00:09:22;;;;;;;12.63;8.80;;;10.80;99.90;;;;;;6172001;23;20146;-92
2022/11/07 00:11:48;;;;;;;11.75;8.00;;;10.80;99.90;;;;;;6171347;23;20112;-91
2022/11/07 00:14:15;;;;;;;11.32;8.18;;;10.80;99.90;;;;;;6172633;23;20069;-92
2022/11/07 00:16:42;;;;;;;12.85;8.80;;;10.80;99.90;;;;;;6170632;23;20028;-93
2022/11/07 00:19:08;;;;;;;11.52;8.48;;;10.80;99.90;;;;;;6172373;23;20013;-92
2022/11/07 00:21:34;;;;;;;13.63;8.02;;;10.80;99.90;;;;;;6172216;23;20016;-92
2022/11/07 00:23:59;;;;;;;15.20;8.40;;;10.90;99.90;;;;;;6171847;23;20021;-92
2022/11/07 00:26:25;;;;;;;13.15;7.82;;;10.90;99.90;;;;;;6172930;23;20385;-92
2022/11/07 00:28:51;;;;;;;14.93;8.55;;;10.90;99.90;;;;;;6171593;23;20229;-93
2022/11/07 00:31:17;;;;;;;11.45;7.78;;;10.90;99.90;;;;;;6193820;23;20016;-93
2022/11/07 00:33:43;;;;;;;11.15;7.95;;;10.90;99.90;;;;;;6171178;23;20016;-92
2022/11/07 00:36:18;;;;;;;9.10;7.45;;;10.80;99.90;;;;;;6170332;23;20016;-93
2022/11/07 00:38:44;;;;;;;12.25;7.20;;;10.90;99.90;;;;;;6172046;23;20012;-92
2022/11/07 00:41:09;;;;;;;12.88;7.78;;;10.90;99.90;;;;;;6171159;23;20072;-93
2022/11/07 00:43:35;;;;;;;10.10;7.38;;;10.90;99.90;;;;;;6172470;23;20020;-93
2022/11/07 00:46:02;;;;;;;14.30;7.85;;;11.00;99.90;;;;;;6196291;23;20017;-94
2022/11/07 00:48:29;;;;;;;10.45;6.88;;;11.00;99.90;;;;;;6173003;23;20072;-94
2022/11/07 00:50:55;;;;;;;10.77;7.38;;;11.00;99.90;;;;;;6171897;23;20399;-93
2022/11/07 00:53:21;;;;;;;13.00;7.85;;;11.00;99.90;;;;;;6172446;23;20027;-92
2022/11/07 00:55:46;;;;;;;12.52;6.93;;;11.10;99.90;;;;;;6172168;23;20531;-93
2022/11/07 00:58:12;;;;;;;12.75;7.10;;;11.10;99.90;;;;;;6172877;23;20048;-93
2022/11/07 01:00:38;;;;;;;10.85;6.43;;;11.20;99.90;;;;;;6172161;23;20024;-92
2022/11/07 01:05:56;;;;;;;13.77;6.65;;;11.20;99.90;;;;;;6197239;23;20051;-92
2022/11/07 01:08:22;;;;;;;10.85;6.18;;;11.20;99.90;;;;;;6173811;23;20025;-92
2022/11/07 01:10:48;;;;;;;10.38;6.18;;;11.20;99.90;;;;;;6172806;23;20058;-93
2022/11/07 01:13:13;;;;;;;16.50;6.72;;;11.20;99.90;;;;;;6173141;23;20038;-93
2022/11/07 01:15:40;;;;;;;10.73;6.95;;;11.20;99.90;;;;;;6172111;23;20016;-93
2022/11/07 01:18:05;;;;;;;10.85;6.95;;;11.20;99.90;;;;;;6170662;23;20042;-92
2022/11/07 01:20:31;;;;;;;10.43;6.13;;;11.20;99.90;;;;;;6172699;23;20017;-94
2022/11/07 01:22:57;;;;;;;13.02;5.97;;;11.20;99.90;;;;;;6173329;23;20023;-94
2022/11/07 01:25:22;;;;;;;13.98;6.28;;;11.20;99.90;;;;;;6173964;23;20020;-92
2022/11/07 01:27:48;;;;;;;11.13;6.00;;;11.30;99.90;;;;;;6172573;23;20038;-91
2022/11/07 01:30:13;;;;;;;13.13;6.55;;;11.30;99.90;;;;;;6173865;23;20020;-92
2022/11/07 01:32:39;;;;;;;12.43;6.05;;;11.30;99.90;;;;;;6170844;23;20018;-94
2022/11/07 01:35:05;;;;;;;11.43;6.00;;;11.40;99.90;;;;;;6173405;23;20032;-92
2022/11/07 01:37:31;;;;;;;11.63;6.40;;;11.30;99.90;;;;;;6172095;23;20016;-90
2022/11/07 01:39:57;;;;;;;13.30;5.60;;;11.30;99.90;;;;;;6173859;23;20461;-93
2022/11/07 01:42:23;;;;;;;11.50;5.45;;;11.40;99.90;;;;;;6172141;23;20009;-92
2022/11/07 01:44:58;;;;;;;11.75;5.78;;;11.30;99.90;;;;;;6199116;23;20523;-93
2022/11/07 01:47:31;;;;;;;11.85;5.70;;;11.40;99.90;;;;;;6171190;23;20013;-94
2022/11/07 01:49:57;;;;;;;9.10;5.80;;;11.30;99.90;;;;;;6172745;23;20059;-92
2022/11/07 01:52:27;;;;;;;13.63;5.70;;;11.30;99.90;;;;;;6171947;23;20061;-93
2022/11/07 01:55:08;;;;;;;14.50;6.13;;;11.30;99.90;;;;;;6173005;23;20182;-93
2022/11/07 01:57:57;;;;;;;16.40;6.07;;;11.30;99.90;;;;;;6172619;22;20044;-92
2022/11/07 02:00:24;;;;;;;10.05;5.82;;;11.30;99.90;;;;;;6173481;23;20425;-95
2022/11/07 02:03:04;;;;;;;11.27;6.00;;;11.30;99.90;;;;;;6171147;23;20365;-94
2022/11/07 02:05:36;;;;;;;14.20;6.05;;;11.30;99.90;;;;;;6172812;23;20016;-92
2022/11/07 02:08:05;;;;;;;14.55;7.10;;;11.30;99.90;;;;;;6171792;23;20024;-92
2022/11/07 02:10:33;;;;;;;10.00;5.70;;;11.30;99.90;;;;;;6173348;23;20012;-91
2022/11/07 02:12:59;;;;;;;8.98;5.82;;;11.30;99.90;;;;;;6196803;23;20236;-93
2022/11/07 02:15:25;;;;;;;10.98;6.10;;;11.30;99.90;;;;;;6173200;23;20023;-94
2022/11/07 02:17:52;;;;;;;10.85;5.50;;;11.30;99.90;;;;;;6170836;23;20013;-95
2022/11/07 02:20:18;;;;;;;10.90;6.30;;;11.30;99.90;;;;;;6172859;23;20036;-93
2022/11/07 02:22:55;;;;;;;10.27;5.72;;;11.30;99.90;;;;;;6173319;23;20012;-94
2022/11/07 02:25:21;;;;;;;15.38;6.43;;;11.40;99.90;;;;;;6173326;23;20074;-93
2022/11/07 02:28:04;;;;;;;15.05;6.43;;;11.30;99.90;;;;;;6173266;23;20016;-92
2022/11/07 02:30:33;;;;;;;11.40;6.38;;;11.20;99.90;;;;;;6172912;23;20070;-92
2022/11/07 02:33:00;;;;;;;15.60;6.78;;;11.30;99.90;;;;;;6170919;23;20031;-94
2022/11/07 02:35:35;;;;;;;11.57;6.25;;;11.30;99.90;;;;;;6172923;23;20036;-92
2022/11/07 02:38:20;;;;;;;14.52;6.55;;;11.30;99.90;;;;;;6304306;22;20298;-92
2022/11/07 02:41:10;;;;;;;12.52;6.50;;;11.20;99.90;;;;;;6173452;23;20387;-92
2022/11/07 02:43:39;;;;;;;14.98;7.03;;;11.20;99.90;;;;;;6197972;23;20020;-92
2022/11/07 02:46:09;;;;;;;14.65;6.60;;;11.30;99.90;;;;;;6171940;23;20036;-92
2022/11/07 02:49:04;;;;;;;16.20;6.70;;;11.20;99.90;;;;;;6172568;23;20027;-92
2022/11/07 02:51:30;;;;;;;10.65;6.82;;;11.30;99.90;;;;;;6178403;23;20964;-92
2022/11/07 02:53:56;;;;;;;13.68;6.97;;;11.20;99.90;;;;;;6173005;23;20293;-94
2022/11/07 02:56:22;;;;;;;13.68;6.60;;;11.30;99.90;;;;;;6171996;23;20020;-93
2022/11/07 02:58:48;;;;;;;14.18;6.03;;;11.30;99.90;;;;;;6172993;23;20426;-92
2022/11/07 03:01:14;;;;;;;14.75;6.63;;;11.30;99.90;;;;;;6194582;23;20340;-92
2022/11/07 03:03:42;;;;;;;14.00;6.57;;;11.20;99.90;;;;;;6170735;23;20354;-93
2022/11/07 03:06:12;;;;;;;13.73;7.00;;;11.20;99.90;;;;;;6172151;23;20025;-94
2022/11/07 03:08:40;;;;;;;12.95;5.88;;;11.20;99.90;;;;;;6172279;23;20461;-92
2022/11/07 03:11:06;;;;;;;11.10;6.05;;;11.20;99.90;;;;;;6171834;23;20103;-92
2022/11/07 03:13:32;;;;;;;15.27;6.45;;;11.10;99.90;;;;;;6172866;23;20013;-92
2022/11/07 03:16:08;;;;;;;15.13;6.18;;;11.00;99.90;;;;;;6171249;23;20016;-92
2022/11/07 03:18:35;;;;;;;15.38;7.00;;;11.00;99.90;;;;;;6173504;23;20062;-94
2022/11/07 03:21:01;;;;;;;10.40;6.03;;;10.90;99.90;;;;;;6172333;23;20048;-91
2022/11/07 03:23:29;;;;;;;13.10;6.70;;;10.90;99.90;;;;;;6173238;22;20096;-91
2022/11/07 03:25:55;;;;;;;12.80;6.25;;;10.90;99.90;;;;;;6173599;23;20020;-92
2022/11/07 03:28:21;;;;;;;13.93;6.70;;;10.80;99.90;;;;;;6172293;23;20251;-93
2022/11/07 03:30:46;;;;;;;17.30;6.10;;;10.90;99.90;;;;;;6171946;23;20115;-91
2022/11/07 03:33:12;;;;;;;13.02;6.22;;;10.90;99.90;;;;;;6171096;23;20096;-92
2022/11/07 03:35:38;;;;;;;12.82;5.63;;;10.80;99.90;;;;;;6172975;23;20020;-92
2022/11/07 03:38:03;;;;;;;12.63;6.50;;;10.90;99.90;;;;;;6172135;23;20017;-92
2022/11/07 03:40:29;;;;;;;18.80;6.18;;;10.70;99.90;;;;;;6173627;23;20016;-94
2022/11/07 03:42:58;;;;;;;11.75;5.80;;;10.90;99.90;;;;;;6172156;23;20089;-92
2022/11/07 03:45:23;;;;;;;14.02;6.47;;;10.80;99.90;;;;;;6173110;23;20016;-91
2022/11/07 03:47:49;;;;;;;12.38;5.38;;;10.80;99.90;;;;;;6169689;23;20135;-92
2022/11/07 03:50:17;;;;;;;11.52;5.38;;;10.90;99.90;;;;;;6172704;23;20138;-92
2022/11/07 03:52:44;;;;;;;14.38;5.45;;;10.90;99.90;;;;;;6172334;23;20256;-93
2022/11/07 03:55:14;;;;;;;14.15;6.45;;;11.00;99.90;;;;;;6148647;23;20337;-92
2022/11/07 03:57:41;;;;;;;13.25;5.18;;;10.90;99.90;;;;;;6147095;23;20021;-93
2022/11/07 04:00:08;;;;;;;13.98;5.75;;;11.00;99.90;;;;;;6148651;22;20012;-92
2022/11/07 04:02:34;;;;;;;11.48;6.18;;;11.00;99.90;;;;;;6143636;23;20017;-88
2022/11/07 04:05:00;;;;;;;13.60;6.00;;;10.90;99.90;;;;;;6145462;23;20361;-87
2022/11/07 04:07:26;;;;;;;15.77;6.13;;;10.90;99.90;;;;;;6169222;23;20437;-89
2022/11/07 04:09:54;;;;;;;13.40;5.60;;;10.90;99.90;;;;;;6146700;23;20218;-87
2022/11/07 04:17:49;;;;;;;15.48;6.35;;;10.80;99.90;;;;;;6168314;23;20047;-89
2022/11/07 04:20:15;;;;;;;15.30;5.78;;;10.70;99.90;;;;;;6145745;23;20190;-87
2022/11/07 04:22:40;;;;;;;12.68;5.45;;;10.70;99.90;;;;;;6144903;23;20112;-88
2022/11/07 04:25:06;;;;;;;12.00;5.55;;;10.70;99.90;;;;;;6146079;22;20016;-88
2022/11/07 04:27:41;;;;;;;15.23;6.45;;;10.80;99.90;;;;;;6169927;23;20016;-89
2022/11/07 04:30:24;;;;;;;19.20;5.97;;;10.80;99.90;;;;;;6146261;23;20035;-89
2022/11/07 04:32:55;;;;;;;14.13;6.68;;;10.80;99.90;;;;;;6167719;22;20379;-88
2022/11/07 04:35:24;;;;;;;16.05;6.03;;;10.90;99.90;;;;;;6145727;22;20039;-87
2022/11/07 04:37:50;;;;;;;12.75;6.18;;;10.80;99.90;;;;;;6145191;22;20012;-88
2022/11/07 04:40:17;;;;;;;13.93;6.25;;;10.80;99.90;;;;;;6146247;22;20013;-88
2022/11/07 04:42:43;;;;;;;20.58;6.60;;;10.80;99.90;;;;;;6144761;22;20021;-89
2022/11/07 04:45:10;;;;;;;12.90;6.05;;;10.60;99.90;;;;;;6145240;23;20472;-88
2022/11/07 04:47:36;;;;;;;16.40;6.00;;;10.70;99.90;;;;;;6167864;23;20130;-87
2022/11/07 04:50:03;;;;;;;12.95;6.25;;;10.80;99.90;;;;;;6145518;23;20244;-88
2022/11/07 04:52:29;;;;;;;16.08;6.10;;;10.80;99.90;;;;;;6144055;22;20024;-88
2022/11/07 04:54:55;;;;;;;20.83;6.22;;;10.80;99.90;;;;;;6145788;22;20021;-88
2022/11/07 04:57:21;;;;;;;20.00;6.75;;;10.90;99.90;;;;;;6144959;23;20104;-88
2022/11/07 04:59:46;;;;;;;14.45;6.45;;;11.00;99.90;;;;;;6170248;23;20044;-88
2022/11/07 05:02:12;;;;;;;13.32;6.45;;;10.90;99.90;;;;;;6143255;23;20407;-88
2022/11/07 05:04:39;;;;;;;14.85;6.43;;;11.00;99.90;;;;;;6145467;23;20025;-87
2022/11/07 05:07:05;;;;;;;17.98;6.97;;;11.00;99.90;;;;;;6169505;23;20017;-87
2022/11/07 05:09:31;;;;;;;15.02;7.32;;;11.10;99.90;;;;;;6169411;23;20055;-87
2022/11/07 05:11:57;;;;;;;15.75;6.43;;;11.10;99.90;;;;;;6144276;23;20058;-87
2022/11/07 05:14:23;;;;;;;14.18;6.22;;;11.10;99.90;;;;;;6169356;23;20009;-88
2022/11/07 05:16:51;;;;;;;13.25;6.30;;;11.10;99.90;;;;;;6166341;23;20048;-87
2022/11/07 05:19:18;;;;;;;17.10;6.97;;;11.00;99.90;;;;;;6144599;22;20008;-88
2022/11/07 05:21:44;;;;;;;13.77;6.80;;;11.10;99.90;;;;;;6143214;22;20024;-87
2022/11/07 05:24:13;;;;;;;14.38;8.02;;;11.10;99.90;;;;;;6145440;23;20017;-87
2022/11/07 05:26:39;;;;;;;18.35;7.25;;;11.10;99.90;;;;;;6144646;23;20167;-88
2022/11/07 05:29:07;;;;;;;15.68;7.03;;;10.90;99.90;;;;;;6144718;23;20569;-88
2022/11/07 05:31:33;;;;;;;16.15;7.32;;;11.00;99.90;;;;;;6143751;23;20059;-87
2022/11/07 05:33:59;;;;;;;12.50;7.20;;;10.90;99.90;;;;;;6147330;23;20009;-88
2022/11/07 05:36:25;;;;;;;18.95;7.72;;;11.00;99.90;;;;;;6145813;23;20330;-88
2022/11/07 05:38:54;;;;;;;15.15;7.75;;;10.90;99.90;;;;;;6170820;23;20008;-86
2022/11/07 05:41:21;;;;;;;17.20;8.05;;;10.90;99.90;;;;;;6146019;23;20496;-88
2022/11/07 05:43:47;;;;;;;16.48;8.20;;;10.90;99.90;;;;;;6145190;23;20016;-88
2022/11/07 05:46:13;;;;;;;14.27;8.18;;;11.00;99.90;;;;;;6168905;23;20024;-87
2022/11/07 05:48:39;;;;;;;15.43;7.80;;;11.10;99.90;;;;;;6170625;23;20345;-86
2022/11/07 05:51:06;;;;;;;14.07;8.07;;;11.10;99.90;;;;;;6144599;23;20017;-88
2022/11/07 05:53:32;;;;;;;16.52;8.80;;;11.10;99.90;;;;;;6154160;22;20321;-88
2022/11/07 05:56:01;;;;;;;21.63;8.75;;;11.00;99.90;;;;;;6195797;23;20147;-88
2022/11/07 05:58:27;;;;;;;13.25;8.10;;;11.00;99.90;;;;;;6196446;23;20369;-88
2022/11/07 06:00:52;;;;;;;14.30;8.25;;;11.00;99.90;;;;;;6195342;23;20198;-88
2022/11/07 06:03:21;;;;;;;14.70;8.43;;;11.10;99.90;;;;;;6169380;23;20341;-88
2022/11/07 06:05:47;;;;;;;14.40;8.38;;;11.10;99.90;;;;;;6195865;23;20059;-88
2022/11/07 06:08:13;;;;;;;15.68;7.90;;;10.90;99.90;;;;;;6196266;23;20025;-86
2022/11/07 06:10:40;;;;;;;16.70;7.97;;;11.00;99.90;;;;;;6195283;23;20031;-88
2022/11/07 06:13:10;;;;;;;16.75;7.70;;;11.00;99.90;;;;;;6195786;23;20009;-88
2022/11/07 06:15:37;;;;;;;17.55;8.05;;;11.20;99.90;;;;;;6171223;23;20444;-87
2022/11/07 06:18:05;;;;;;;17.42;7.47;;;11.20;99.90;;;;;;6194054;23;20012;-88
2022/11/07 06:20:34;;;;;;;14.57;6.53;;;11.00;99.90;;;;;;6196274;23;20071;-87
2022/11/07 06:23:06;;;;;;;16.38;7.22;;;11.00;99.90;;;;;;6196742;23;20019;-88
2022/11/07 06:25:35;;;;;;;14.82;7.30;;;11.20;99.90;;;;;;6172039;23;20020;-88
2022/11/07 06:28:06;;;;;;;12.63;6.97;;;11.10;99.90;;;;;;6170677;23;20099;-89
2022/11/07 06:30:32;;;;;;;12.75;6.40;;;11.00;99.90;;;;;;6171988;23;20012;-87
2022/11/07 06:33:11;;;;;;;13.40;6.88;;;11.10;99.90;;;;;;6169024;23;20016;-89
2022/11/07 06:35:36;;;;;;;12.40;6.40;;;11.00;99.90;;;;;;6196070;23;20339;-89
2022/11/07 06:38:10;;;;;;;10.77;6.03;;;11.10;99.90;;;;;;6195252;23;20096;-88
2022/11/07 06:40:37;;;;;;;17.50;6.47;;;11.00;99.90;;;;;;6170213;23;20020;-89
2022/11/07 06:43:17;;;;;;;15.05;6.18;;;11.10;99.90;;;;;;6169036;23;20544;-87
2022/11/07 06:45:43;;;;;;;10.98;5.80;;;10.90;99.90;;;;;;6194947;23;20516;-88
2022/11/07 06:48:10;;;;;;;17.63;6.68;;;11.00;99.90;;;;;;6194462;23;20327;-88
2022/11/07 06:50:36;;;;;;;13.40;5.45;;;11.00;99.90;;;;;;6169895;23;20457;-87
2022/11/07 06:53:12;;;;;;;10.40;5.40;;;11.00;99.90;;;;;;6194009;23;20024;-89
2022/11/07 06:55:38;;;;;;;12.27;5.10;;;11.00;99.90;;;;;;6170303;23;20040;-89
2022/11/07 06:58:05;;;;;;;10.05;5.30;;;11.00;99.90;;;;;;6195942;23;20083;-88
2022/11/07 07:00:32;;;;;;;12.63;5.20;;;11.10;99.90;;;;;;6171175;23;20095;-88
2022/11/07 07:02:58;;;;;;;11.65;4.65;;;11.00;99.90;;;;;;6194126;23;20260;-88
2022/11/07 07:05:24;;;;;;;12.32;5.03;;;11.10;99.90;;;;;;6170940;23;20245;-88
2022/11/07 07:07:49;;;;;;;15.25;6.18;;;11.10;99.90;;;;;;6169519;23;20023;-87
2022/11/07 07:10:15;;;;;;;13.10;5.80;;;11.10;99.90;;;;;;6171570;23;20024;-87
2022/11/07 07:12:41;;;;;;;17.25;6.60;;;11.20;99.90;;;;;;6170669;23;20374;-88
2022/11/07 07:15:07;;;;;;;16.95;6.63;;;11.20;99.90;;;;;;6171036;23;20434;-88
2022/11/07 07:17:33;;;;;;;13.90;7.43;;;11.20;99.90;;;;;;6167488;23;20024;-88
2022/11/07 07:19:58;;;;;;;16.60;7.18;;;11.20;99.90;;;;;;6170300;23;20013;-89
2022/11/07 07:22:24;;;;;;;21.08;7.50;;;11.20;99.90;;;;;;6170753;23;20141;-88
2022/11/07 07:24:52;;;;;;;21.52;8.48;;;11.20;99.90;;;;;;6170599;23;20008;-88
2022/11/07 07:27:19;;;;;;;14.80;7.47;;;11.20;99.90;;;;;;6169808;23;20031;-88
2022/11/07 07:29:46;;;;;;;12.82;8.05;;;11.20;99.90;;;;;;6169830;23;20015;-86
2022/11/07 07:32:11;;;;;;;22.65;8.30;;;11.30;99.90;;;;;;6166732;23;20081;-87
2022/11/07 07:34:37;;;;;;;17.27;8.18;;;11.20;99.90;;;;;;6194586;23;20013;-87
2022/11/07 07:37:05;;;;;;;21.85;9.40;;;11.30;99.90;;;;;;6168468;23;20012;-88
2022/11/07 07:39:31;;;;;;;19.40;8.45;;;11.30;99.90;;;;;;6169481;23;20091;-88
2022/11/07 07:41:57;;;;;;;17.98;8.27;;;11.20;99.90;;;;;;6169555;23;20054;-86
2022/11/07 07:44:23;;;;;;;18.98;8.93;;;11.30;99.90;;;;;;6194885;23;20023;-87
2022/11/07 07:46:48;;;;;;;19.77;8.45;;;11.30;99.90;;;;;;6192282;23;20040;-88
2022/11/07 07:49:14;;;;;;;24.02;9.32;;;11.30;99.90;;;;;;6170400;23;20027;-87
2022/11/07 07:51:39;;;;;;;20.27;8.90;;;11.30;99.90;;;;;;6169543;23;20013;-88
2022/11/07 07:54:05;;;;;;;16.92;8.70;;;11.40;99.90;;;;;;6169017;23;20021;-87
2022/11/07 07:56:34;;;;;;;17.42;9.10;;;11.30;99.90;;;;;;6169304;23;20012;-87
2022/11/07 07:58:59;;;;;;;23.20;9.00;;;11.40;99.90;;;;;;6170467;23;20461;-86
2022/11/07 08:01:25;;;;;;;24.02;10.13;;;11.30;99.90;;;;;;6192981;23;20095;-88
2022/11/07 08:03:50;;;;;;;20.13;9.75;;;11.40;99.90;;;;;;6168610;23;20052;-86
2022/11/07 08:06:16;;;;;;;20.70;8.98;;;11.40;99.90;;;;;;6170164;23;20449;-87
2022/11/07 08:08:42;;;;;;;18.92;8.98;;;11.50;99.90;;;;;;6169382;23;20157;-87
2022/11/07 08:11:09;;;;;;;18.85;9.93;;;11.50;99.90;;;;;;6169598;23;20065;-88
2022/11/07 08:13:35;;;;;;;21.73;9.20;;;11.40;99.90;;;;;;6169764;23;20021;-86
2022/11/07 08:16:02;;;;;;;20.67;9.85;;;11.50;99.90;;;;;;6168800;23;20096;-87
2022/11/07 08:18:28;;;;;;;20.70;9.32;;;11.60;99.90;;;;;;6168987;23;20120;-87
2022/11/07 08:20:55;;;;;;;25.30;9.23;;;11.60;99.90;;;;;;6194949;23;20100;-88
2022/11/07 08:23:22;;;;;;;21.45;9.05;;;11.60;99.90;;;;;;6169410;22;20126;-87
2022/11/07 08:25:53;;;;;;;22.83;9.30;;;11.70;99.90;;;;;;6169324;23;20031;-87
2022/11/07 08:28:21;;;;;;;24.83;9.55;;;11.70;99.90;;;;;;6168891;23;20016;-88
2022/11/07 08:30:58;;;;;;;28.83;9.27;;;11.70;99.90;;;;;;6168936;23;20101;-87
2022/11/07 08:33:24;;;;;;;21.10;8.88;;;11.70;99.90;;;;;;6193212;23;20048;-88
2022/11/07 08:35:49;;;;;;;26.30;9.88;;;11.80;99.90;;;;;;6168232;23;20117;-87
2022/11/07 08:38:15;;;;;;;15.88;8.18;;;11.80;99.90;;;;;;6169082;23;20091;-88
2022/11/07 08:40:41;;;;;;;21.88;8.73;;;11.80;99.90;;;;;;6194277;23;20017;-88
2022/11/07 08:43:06;;;;;;;17.50;8.65;;;12.00;99.90;;;;;;6169405;23;20036;-88
2022/11/07 08:45:34;;;;;;;21.13;7.75;;;11.90;99.90;;;;;;6170484;23;20382;-88
2022/11/07 08:48:03;;;;;;;17.73;7.40;;;12.00;99.90;;;;;;6168164;23;20016;-87
2022/11/07 08:50:29;;;;;;;16.50;7.13;;;12.00;99.90;;;;;;6169683;23;20116;-88
2022/11/07 08:52:55;;;;;;;20.10;7.63;;;12.10;99.90;;;;;;6169189;23;20594;-86
2022/11/07 08:55:20;;;;;;;18.88;7.82;;;12.10;99.90;;;;;;6170536;23;20017;-88
2022/11/07 08:57:46;;;;;;;17.55;7.05;;;12.10;99.90;;;;;;6169065;23;20004;-87
2022/11/07 09:00:12;;;;;;;16.05;8.05;;;11.90;99.90;;;;;;6170394;23;20139;-86
2022/11/07 09:02:38;;;;;;;14.23;7.47;;;12.10;99.90;;;;;;6165854;23;20017;-88
2022/11/07 09:05:04;;;;;;;19.73;7.50;;;12.10;99.90;;;;;;6169606;23;20012;-87
2022/11/07 09:07:29;;;;;;;15.63;6.95;;;12.10;99.90;;;;;;6169378;23;20021;-89
2022/11/07 09:09:55;;;;;;;16.88;7.05;;;12.10;99.90;;;;;;6196066;23;20100;-87
2022/11/07 09:12:20;;;;;;;20.65;7.45;;;12.10;99.90;;;;;;6170647;23;20024;-88
2022/11/07 09:14:46;;;;;;;17.60;6.78;;;12.20;99.90;;;;;;6172194;23;20009;-87
2022/11/07 09:17:12;;;;;;;17.10;6.97;;;12.20;99.90;;;;;;6192756;23;20100;-87
2022/11/07 09:19:37;;;;;;;15.07;6.47;;;12.00;99.90;;;;;;6170534;23;20327;-87
2022/11/07 09:22:03;;;;;;;15.77;7.60;;;12.20;99.90;;;;;;6168853;23;20046;-88
2022/11/07 09:24:29;;;;;;;15.20;7.45;;;12.20;99.90;;;;;;6171177;23;20435;-87
2022/11/07 09:26:54;;;;;;;13.98;6.38;;;12.20;99.90;;;;;;6170221;23;20529;-87
2022/11/07 09:29:22;;;;;;;14.15;5.95;;;12.20;99.90;;;;;;6171802;23;20124;-88
2022/11/07 09:31:48;;;;;;;15.30;6.30;;;12.40;99.90;;;;;;6168096;23;20528;-88
2022/11/07 09:34:14;;;;;;;14.20;5.65;;;12.40;99.90;;;;;;6170304;23;20016;-87
2022/11/07 09:36:39;;;;;;;15.63;6.50;;;12.50;99.90;;;;;;6168601;23;20008;-87
2022/11/07 09:39:05;;;;;;;14.98;6.10;;;12.40;99.90;;;;;;6194428;23;20062;-87
2022/11/07 09:41:53;;;;;;;17.13;6.25;;;12.50;99.90;;;;;;6171054;23;20095;-88
2022/11/07 09:44:41;;;;;;;14.82;6.03;;;12.50;99.90;;;;;;6169408;23;20446;-87
2022/11/07 09:47:13;;;;;;;11.35;5.70;;;12.40;99.90;;;;;;6170976;23;20090;-87
2022/11/07 09:49:38;;;;;;;11.40;5.05;;;12.50;99.90;;;;;;6170026;23;20025;-88
2022/11/07 09:52:30;;;;;;;16.73;5.50;;;12.50;99.90;;;;;;6301458;22;20471;-87
2022/11/07 09:55:19;;;;;;;15.63;5.85;;;12.60;99.90;;;;;;6169887;23;20025;-87
2022/11/07 09:57:46;;;;;;;16.88;5.35;;;12.60;99.90;;;;;;6169941;23;20446;-88
2022/11/07 10:00:20;;;;;;;19.15;5.35;;;12.50;99.90;;;;;;6196264;23;20053;-88
2022/11/07 10:02:53;;;;;;;12.95;5.28;;;12.60;99.90;;;;;;6168311;23;20478;-86
2022/11/07 10:05:36;;;;;;;12.55;5.20;;;12.50;99.90;;;;;;6170309;23;20115;-87
2022/11/07 10:08:02;;;;;;;13.75;5.57;;;12.70;99.90;;;;;;6170412;23;20050;-88
2022/11/07 10:10:56;;;;;;;10.68;4.75;;;12.70;99.90;;;;;;6302581;22;20064;-86
2022/11/07 10:13:41;;;;;;;12.02;4.75;;;12.60;99.90;;;;;;6170644;22;20520;-89
2022/11/07 10:16:16;;;;;;;12.27;5.55;;;12.60;99.90;;;;;;6168882;23;20406;-86
2022/11/07 10:19:07;;;;;;;12.15;4.47;;;12.70;99.90;;;;;;6194874;23;20065;-89
2022/11/07 10:21:50;;;;;;;19.77;5.28;;;12.70;99.90;;;;;;6170371;23;20025;-88
2022/11/07 10:24:49;;;;;;;12.45;4.80;;;12.60;99.90;;;;;;6300250;22;20453;-89
2022/11/07 10:27:15;;;;;;;14.75;4.57;;;12.70;99.90;;;;;;6170300;23;20016;-87
2022/11/07 10:29:51;;;;;;;15.05;5.78;;;12.80;99.90;;;;;;6171008;23;20116;-88
2022/11/07 10:32:37;;;;;;;10.43;3.90;;;12.70;99.90;;;;;;6167637;23;20112;-89
2022/11/07 10:35:23;;;;;;;11.98;4.80;;;12.80;99.90;;;;;;6170610;23;20035;-88
2022/11/07 10:37:52;;;;;;;;;;;12.80;99.90;;;;;;6170852;23;20472;-87
2022/11/07 10:40:20;;;;;;;10.68;4.03;;;13.00;99.90;;;;;;6171231;23;20084;-88
2022/11/07 10:42:47;;;;;;;9.70;4.13;;;13.00;99.90;;;;;;6170597;23;20013;-88
2022/11/07 10:45:15;;;;;;;11.90;4.60;;;13.10;99.90;;;;;;6170746;23;20044;-88
2022/11/07 10:47:42;;;;;;;13.98;4.65;;;13.10;99.90;;;;;;6167572;22;20028;-87
2022/11/07 10:50:22;;;;;;;13.38;4.43;;;13.30;99.90;;;;;;6170012;23;20017;-87
2022/11/07 10:53:15;;;;;;;13.15;4.28;;;13.40;99.90;;;;;;6168813;23;20013;-88
2022/11/07 10:55:46;;;;;;;9.75;3.55;;;13.60;99.90;;;;;;6145829;23;20020;-89
2022/11/07 10:58:25;;;;;;;14.77;4.00;;;13.60;99.90;;;;;;6145898;23;20013;-87
2022/11/07 11:01:04;;;;;;;10.77;4.28;;;13.50;99.90;;;;;;6144368;22;20076;-88
2022/11/07 11:03:33;;;;;;;9.40;3.70;;;13.60;99.90;;;;;;6169911;23;20114;-88
2022/11/07 11:06:31;;;;;;;11.38;4.00;;;13.60;99.90;;;;;;6144587;22;20020;-88
2022/11/07 11:08:57;;;;;;;16.13;4.22;;;13.60;99.90;;;;;;6178964;23;20314;-87
2022/11/07 11:11:28;;;;;;;14.02;4.18;;;13.70;99.90;;;;;;6144797;23;20415;-87
2022/11/07 11:14:01;;;;;;;12.57;4.15;;;13.70;99.90;;;;;;6145291;23;20013;-86
2022/11/07 11:16:29;;;;;;;10.15;3.90;;;13.80;99.90;;;;;;6142587;22;20015;-87
2022/11/07 11:18:58;;;;;;;12.43;4.47;;;13.80;99.90;;;;;;6145086;23;20043;-88
2022/11/07 11:21:24;;;;;;;10.70;3.85;;;13.80;99.90;;;;;;6145029;22;20492;-88
2022/11/07 11:23:52;;;;;;;11.55;3.88;;;13.80;99.90;;;;;;6144407;22;20056;-87
2022/11/07 11:26:28;;;;;;;14.57;4.15;;;13.90;99.90;;;;;;6144689;23;20021;-87
2022/11/07 11:29:05;;;;;;;10.00;3.75;;;13.80;99.90;;;;;;6145081;23;20119;-87
2022/11/07 11:31:49;;;;;;;11.02;4.03;;;13.80;99.90;;;;;;6143401;23;20095;-88
2022/11/07 11:34:25;;;;;;;12.43;3.65;;;13.70;99.90;;;;;;6145645;23;20020;-87
2022/11/07 11:37:13;;;;;;;12.75;3.92;;;13.80;99.90;;;;;;6167929;23;20491;-87
2022/11/07 11:39:48;;;;;;;11.10;3.88;;;13.90;99.90;;;;;;6170814;23;20056;-87
2022/11/07 11:42:20;;;;;;;9.02;4.35;;;13.80;99.90;;;;;;6144949;23;20027;-86
2022/11/07 11:44:45;;;;;;;10.18;3.50;;;13.80;99.90;;;;;;6145087;22;20032;-86
2022/11/07 11:47:29;;;;;;;12.40;4.15;;;13.90;99.90;;;;;;6142230;23;20017;-87
2022/11/07 11:50:04;;;;;;;11.07;3.93;;;13.90;99.90;;;;;;6147450;23;20063;-93
2022/11/07 11:52:33;;;;;;;14.02;4.38;;;14.00;99.90;;;;;;6146199;23;20306;-94
2022/11/07 11:55:00;;;;;;;9.52;4.05;;;14.00;99.90;;;;;;6148517;23;20520;-93
2022/11/07 11:57:33;;;;;;;7.57;3.30;;;14.10;99.90;;;;;;6146712;22;20012;-93
2022/11/07 12:00:17;;;;;;;8.18;3.45;;;14.20;99.90;;;;;;6147869;22;20023;-93
2022/11/07 12:02:59;;;;;;;12.40;3.63;;;14.30;99.90;;;;;;6170400;23;20008;-92
2022/11/07 12:05:59;;;;;;;12.35;4.00;;;14.30;99.90;;;;;;6147441;23;20476;-93
2022/11/07 12:08:44;;;;;;;10.88;3.60;;;14.40;99.90;;;;;;6148932;23;20015;-94
2022/11/07 12:11:28;;;;;;;10.43;3.20;;;14.50;99.90;;;;;;6147660;23;20047;-93
2022/11/07 12:14:24;;;;;;;11.95;3.55;;;14.30;99.90;;;;;;6148396;23;20069;-95
2022/11/07 12:16:56;;;;;;;;;;;14.40;99.90;;;;;;6145250;23;20016;-93
2022/11/07 12:19:39;;;;;;;7.55;3.28;;;14.50;99.90;;;;;;6147868;22;20012;-94
2022/11/07 12:22:49;;;;;;;10.98;3.30;;;14.50;99.90;;;;;;6147724;23;20392;-92
2022/11/07 12:25:26;;;;;;;11.95;3.92;;;14.90;99.90;;;;;;6147135;23;20016;-93
2022/11/07 12:28:13;;;;;;;8.55;3.30;;;14.70;99.90;;;;;;6147863;23;20186;-93
2022/11/07 12:30:58;;;;;;;10.27;3.05;;;14.70;99.90;;;;;;6144614;23;20013;-93
2022/11/07 12:33:36;;;;;;;8.45;3.15;;;14.80;99.90;;;;;;6146984;23;20020;-92
2022/11/07 12:36:10;;;;;;;7.63;3.05;;;14.80;99.90;;;;;;6146674;23;20453;-94
2022/11/07 12:39:06;;;;;;;10.95;3.55;;;14.80;99.90;;;;;;6148201;23;20016;-93
2022/11/07 12:41:51;;;;;;;10.90;2.97;;;14.80;99.90;;;;;;6146534;22;20027;-94
2022/11/07 12:44:26;;;;;;;7.97;3.42;;;14.70;99.90;;;;;;6163755;23;20117;-93
2022/11/07 12:46:56;;;;;;;7.63;2.80;;;14.70;99.90;;;;;;6145378;23;20082;-93
2022/11/07 12:50:01;;;;;;;7.82;3.30;;;14.70;99.90;;;;;;6147678;23;20012;-92
2022/11/07 12:52:54;;;;;;;9.70;3.10;;;14.80;99.90;;;;;;6151699;23;20017;-91
2022/11/07 12:55:24;;;;;;;11.52;3.58;;;15.00;99.90;;;;;;6173299;23;20024;-93
2022/11/07 12:57:53;;;;;;;8.85;2.97;;;15.30;99.90;;;;;;6172353;23;20438;-93
2022/11/07 13:00:22;;;;;;;7.13;2.55;;;15.10;99.90;;;;;;6173010;23;20077;-93
2022/11/07 13:03:12;;;;;;;9.30;2.53;;;15.00;99.90;;;;;;6170682;23;20081;-93